createdAt,value
2019-03-22T00:01:04.699Z,13.30
2019-03-22T00:03:37.768Z,14.23
2019-03-22T00:06:10.844Z,14.47
2019-03-22T00:08:44.001Z,14.13
2019-03-22T00:11:17.039Z,13.23
2019-03-22T00:13:50.239Z,14.40
2019-03-22T00:16:23.117Z,14.33
2019-03-22T00:18:56.169Z,14.17
2019-03-22T00:21:29.189Z,14.30
2019-03-22T00:24:02.185Z,13.90
2019-03-22T00:26:35.280Z,14.70
2019-03-22T00:29:08.352Z,14.73
2019-03-22T00:31:41.551Z,14.87
2019-03-22T00:34:14.647Z,14.83
2019-03-22T00:36:47.689Z,14.73
2019-03-22T00:39:20.648Z,13.87
2019-03-22T00:41:53.502Z,15.10
2019-03-22T00:44:26.435Z,14.53
2019-03-22T00:46:59.359Z,14.53
2019-03-22T00:49:32.417Z,14.60
2019-03-22T00:52:05.371Z,13.27
2019-03-22T00:54:38.231Z,14.53
2019-03-22T00:57:11.071Z,15.00
2019-03-22T00:59:44.017Z,13.57
2019-03-22T01:02:16.993Z,13.90
2019-03-22T01:04:49.869Z,14.27
2019-03-22T01:07:22.888Z,13.97
2019-03-22T01:09:55.820Z,15.60
2019-03-22T01:12:28.758Z,15.10
2019-03-22T01:15:01.516Z,15.47
2019-03-22T01:17:34.585Z,15.40
2019-03-22T01:20:08.382Z,14.20
2019-03-22T01:22:41.446Z,14.43
2019-03-22T01:25:14.476Z,13.73
2019-03-22T01:27:47.456Z,14.63
2019-03-22T01:30:20.423Z,14.80
2019-03-22T01:32:53.359Z,14.73
2019-03-22T01:35:26.285Z,14.03
2019-03-22T01:37:59.282Z,15.03
2019-03-22T01:40:32.275Z,14.87
2019-03-22T01:43:05.204Z,14.33
2019-03-22T01:45:38.089Z,14.70
2019-03-22T01:48:11.064Z,14.90
2019-03-22T01:50:44.292Z,15.97
2019-03-22T01:53:17.185Z,14.37
2019-03-22T01:55:50.134Z,14.70
2019-03-22T01:58:23.102Z,15.23
2019-03-22T02:00:56.046Z,14.00
2019-03-22T02:03:28.895Z,15.33
2019-03-22T02:06:01.861Z,15.40
2019-03-22T02:08:34.996Z,14.63
2019-03-22T02:11:07.837Z,15.40
2019-03-22T02:13:40.916Z,14.37
2019-03-22T02:16:13.944Z,15.00
2019-03-22T02:18:46.837Z,14.53
2019-03-22T02:21:19.828Z,13.70
2019-03-22T02:23:52.767Z,14.77
2019-03-22T02:26:25.716Z,15.63
2019-03-22T02:28:58.544Z,15.37
2019-03-22T02:31:31.503Z,14.47
2019-03-22T02:34:04.498Z,14.50
2019-03-22T02:36:37.399Z,14.80
2019-03-22T02:39:10.434Z,14.23
2019-03-22T02:41:43.236Z,15.17
2019-03-22T02:44:26.661Z,15.13
2019-03-22T02:46:59.704Z,14.37
2019-03-22T02:49:32.830Z,15.67
2019-03-22T02:52:05.778Z,13.73
2019-03-22T02:54:38.650Z,16.10
2019-03-22T02:57:11.687Z,14.67
2019-03-22T02:59:44.779Z,14.73
2019-03-22T03:02:17.863Z,14.10
2019-03-22T03:04:50.977Z,15.53
2019-03-22T03:07:24.129Z,14.93
2019-03-22T03:09:56.936Z,14.90
2019-03-22T03:12:29.874Z,15.67
2019-03-22T03:15:02.694Z,14.07
2019-03-22T03:17:35.636Z,14.40
2019-03-22T03:20:11.317Z,15.70
2019-03-22T03:22:44.343Z,14.40
2019-03-22T03:25:18.472Z,14.53
2019-03-22T03:27:51.418Z,15.07
2019-03-22T03:30:24.793Z,13.20
2019-03-22T03:32:57.874Z,15.33
2019-03-22T03:35:30.966Z,13.83
2019-03-22T03:38:03.966Z,14.33
2019-03-22T03:40:36.993Z,14.70
2019-03-22T03:43:10.011Z,15.07
2019-03-22T03:45:42.947Z,14.87
2019-03-22T03:48:15.830Z,13.97
2019-03-22T03:50:48.786Z,15.03
2019-03-22T03:53:21.722Z,14.80
2019-03-22T03:55:54.671Z,14.53
2019-03-22T03:58:27.514Z,14.13
2019-03-22T04:01:00.508Z,14.47
2019-03-22T04:03:33.590Z,15.33
2019-03-22T04:06:06.556Z,15.37
2019-03-22T04:08:39.341Z,15.30
2019-03-22T04:11:12.257Z,15.70
2019-03-22T04:13:45.248Z,15.23
2019-03-22T04:16:18.096Z,14.93
2019-03-22T04:18:50.924Z,14.60
2019-03-22T04:21:23.850Z,14.77
2019-03-22T04:23:56.670Z,13.77
2019-03-22T04:26:29.659Z,15.30
2019-03-22T04:29:07.878Z,14.30
2019-03-22T04:31:37.105Z,14.87
2019-03-22T04:34:09.836Z,14.30
2019-03-22T04:36:43.119Z,13.60
2019-03-22T04:39:16.051Z,13.30
2019-03-22T04:41:49.227Z,14.27
2019-03-22T04:44:22.236Z,14.27
2019-03-22T04:46:56.248Z,13.53
2019-03-22T04:49:31.443Z,13.67
2019-03-22T04:52:05.225Z,13.23
2019-03-22T04:54:41.332Z,13.97
2019-03-22T04:57:15.837Z,13.60
2019-03-22T04:59:51.346Z,13.97
2019-03-22T05:02:24.923Z,13.03
2019-03-22T05:04:58.410Z,13.87
2019-03-22T05:07:31.995Z,13.83
2019-03-22T05:10:05.758Z,13.60
2019-03-22T05:12:40.747Z,17.10
2019-03-22T05:18:20.176Z,16.10
2019-03-22T05:20:54.844Z,17.73
2019-03-22T05:23:31.323Z,17.20
2019-03-22T05:26:06.525Z,14.17
2019-03-22T05:28:40.771Z,15.60
2019-03-22T05:32:00.616Z,15.77
2019-03-22T05:34:34.497Z,16.43
2019-03-22T05:37:08.366Z,18.50
2019-03-22T05:39:42.258Z,19.63
2019-03-22T05:42:16.187Z,17.17
2019-03-22T05:44:50.052Z,16.77
2019-03-22T05:47:23.988Z,16.23
2019-03-22T05:49:57.684Z,17.40
2019-03-22T05:52:31.379Z,19.10
2019-03-22T05:55:05.920Z,17.97
2019-03-22T05:57:40.551Z,17.50
2019-03-22T06:00:16.543Z,18.00
2019-03-22T06:02:50.557Z,18.50
2019-03-22T06:05:24.359Z,19.20
2019-03-22T06:07:58.418Z,21.40
2019-03-22T06:10:32.237Z,18.17
2019-03-22T06:13:06.104Z,17.90
2019-03-22T06:15:39.796Z,16.77
2019-03-22T06:18:13.706Z,16.80
2019-03-22T06:20:47.547Z,17.70
2019-03-22T06:23:21.319Z,17.43
2019-03-22T06:25:55.817Z,17.37
2019-03-22T06:28:30.134Z,16.57
2019-03-22T06:31:04.503Z,17.80
2019-03-22T06:33:38.435Z,17.00
2019-03-22T06:38:44.143Z,17.20
2019-03-22T06:41:18.172Z,17.33
2019-03-22T06:43:52.334Z,16.40
2019-03-22T06:46:26.169Z,17.80
2019-03-22T06:51:32.922Z,16.90
2019-03-22T06:54:07.314Z,17.27
2019-03-22T06:56:41.144Z,17.73
2019-03-22T06:59:14.998Z,17.93
2019-03-22T07:01:48.745Z,16.60
2019-03-22T07:04:22.433Z,16.23
2019-03-22T07:06:56.579Z,16.43
2019-03-22T07:09:30.451Z,15.97
2019-03-22T07:12:04.402Z,18.93
2019-03-22T07:14:38.340Z,17.73
2019-03-22T07:17:12.951Z,19.70
2019-03-22T07:19:46.849Z,21.77
2019-03-22T07:22:20.561Z,21.43
2019-03-22T07:24:54.434Z,21.30
2019-03-22T07:27:28.222Z,20.23
2019-03-22T07:30:01.954Z,18.17
2019-03-22T07:32:36.367Z,17.43
2019-03-22T07:35:10.718Z,16.60
2019-03-22T07:37:44.747Z,15.27
2019-03-22T07:40:19.038Z,13.70
2019-03-22T07:42:52.876Z,15.00
2019-03-22T07:45:26.937Z,14.23
2019-03-22T07:48:01.042Z,14.73
2019-03-22T07:50:34.848Z,13.53
2019-03-22T07:53:08.605Z,13.57
2019-03-22T07:55:42.533Z,12.97
2019-03-22T07:58:16.773Z,14.10
2019-03-22T08:00:51.552Z,13.60
2019-03-22T08:03:25.583Z,13.00
2019-03-22T08:05:59.419Z,13.20
2019-03-22T08:08:33.671Z,12.17
2019-03-22T08:11:08.612Z,12.80
2019-03-22T08:13:42.641Z,12.27
2019-03-22T08:16:16.479Z,13.07
2019-03-22T08:18:50.164Z,12.20
2019-03-22T08:21:23.991Z,11.50
2019-03-22T08:23:57.928Z,12.07
2019-03-22T08:26:31.920Z,12.47
2019-03-22T08:29:05.991Z,13.27
2019-03-22T08:31:40.182Z,12.27
2019-03-22T08:34:14.348Z,11.43
2019-03-22T08:36:48.375Z,11.27
2019-03-22T08:39:22.377Z,11.67
2019-03-22T08:41:56.719Z,11.33
2019-03-22T08:44:31.049Z,11.40
2019-03-22T08:47:05.004Z,11.77
2019-03-22T08:49:39.118Z,10.43
2019-03-22T08:52:13.637Z,12.17
2019-03-22T08:54:47.615Z,11.83
2019-03-22T08:57:24.710Z,10.53
2019-03-22T08:59:57.489Z,12.23
2019-03-22T09:02:32.731Z,10.93
2019-03-22T09:05:07.813Z,11.30
2019-03-22T09:07:41.631Z,10.43
2019-03-22T09:10:16.101Z,10.47
2019-03-22T09:12:50.203Z,9.60
2019-03-22T09:15:24.168Z,10.00
2019-03-22T09:17:58.067Z,10.13
2019-03-22T09:20:32.014Z,9.73
2019-03-22T09:23:08.781Z,9.83
2019-03-22T09:25:42.812Z,10.17
2019-03-22T09:28:16.800Z,9.90
2019-03-22T09:30:50.745Z,9.57
2019-03-22T09:33:24.497Z,9.43
2019-03-22T09:35:58.779Z,8.93
2019-03-22T09:38:32.943Z,9.23
2019-03-22T09:41:07.139Z,9.00
2019-03-22T09:43:41.166Z,8.13
2019-03-22T09:46:15.596Z,8.73
2019-03-22T09:48:49.502Z,8.10
2019-03-22T09:51:23.277Z,8.20
2019-03-22T09:53:57.622Z,7.97
2019-03-22T09:56:31.855Z,8.60
2019-03-22T09:59:05.658Z,7.83
2019-03-22T10:01:39.377Z,8.40
2019-03-22T10:04:13.236Z,8.93
2019-03-22T10:06:46.913Z,8.40
2019-03-22T10:09:20.636Z,9.07
2019-03-22T10:11:54.603Z,8.80
2019-03-22T10:14:31.270Z,9.23
2019-03-22T10:17:04.279Z,8.43
2019-03-22T10:19:38.304Z,8.73
2019-03-22T10:22:12.427Z,9.13
2019-03-22T10:24:46.256Z,8.43
2019-03-22T10:27:23.140Z,9.40
2019-03-22T10:29:56.874Z,8.53
2019-03-22T10:32:30.793Z,9.20
2019-03-22T10:35:04.925Z,8.50
2019-03-22T10:37:38.879Z,8.90
2019-03-22T10:40:12.936Z,8.83
2019-03-22T10:42:46.896Z,8.73
2019-03-22T10:45:22.515Z,9.33
2019-03-22T10:47:56.381Z,9.30
2019-03-22T10:50:30.041Z,8.93
2019-03-22T10:53:04.699Z,8.97
2019-03-22T10:55:38.712Z,9.17
2019-03-22T10:58:20.826Z,8.87
2019-03-22T11:00:48.872Z,8.03
2019-03-22T11:03:22.960Z,9.00
2019-03-22T11:05:57.152Z,9.13
2019-03-22T11:08:31.874Z,8.30
2019-03-22T11:11:05.790Z,9.63
2019-03-22T11:13:39.568Z,8.70
2019-03-22T11:16:13.557Z,8.87
2019-03-22T11:18:47.960Z,9.00
2019-03-22T11:21:32.629Z,8.77
2019-03-22T11:24:17.238Z,9.73
2019-03-22T11:29:33.831Z,8.57
2019-03-22T11:32:12.902Z,8.87
2019-03-22T11:35:01.569Z,8.87
2019-03-22T11:38:03.287Z,8.10
2019-03-22T11:40:37.381Z,8.93
2019-03-22T11:43:23.137Z,8.80
2019-03-22T11:45:57.227Z,9.77
2019-03-22T11:48:30.975Z,8.73
2019-03-22T11:51:04.769Z,9.33
2019-03-22T11:53:40.655Z,8.10
2019-03-22T11:56:14.865Z,8.47
2019-03-22T11:58:49.006Z,8.23
2019-03-22T12:01:33.883Z,8.23
2019-03-22T12:04:34.947Z,8.27
2019-03-22T12:07:12.071Z,8.13
2019-03-22T12:09:53.770Z,7.87
2019-03-22T12:12:27.641Z,8.67
2019-03-22T12:15:01.482Z,8.63
2019-03-22T12:17:36.220Z,8.10
2019-03-22T12:20:22.516Z,8.83
2019-03-22T12:23:07.356Z,8.60
2019-03-22T12:25:41.239Z,8.63
2019-03-22T12:28:15.397Z,8.33
2019-03-22T12:31:00.589Z,8.57
2019-03-22T12:33:34.571Z,8.60
2019-03-22T12:36:18.971Z,7.87
2019-03-22T12:39:05.195Z,7.90
2019-03-22T12:41:50.318Z,8.90
2019-03-22T12:44:35.239Z,8.23
2019-03-22T12:47:19.327Z,7.73
2019-03-22T12:52:39.977Z,8.70
2019-03-22T12:55:24.407Z,8.20
2019-03-22T12:58:09.090Z,8.43
2019-03-22T13:00:42.851Z,8.87
2019-03-22T13:03:16.588Z,8.80
2019-03-22T13:05:50.410Z,9.63
2019-03-22T13:08:34.570Z,8.90
2019-03-22T13:11:08.718Z,9.77
2019-03-22T13:13:42.608Z,9.43
2019-03-22T13:16:16.471Z,8.93
2019-03-22T13:19:02.555Z,9.70
2019-03-22T13:21:36.168Z,10.00
2019-03-22T13:24:10.200Z,9.07
2019-03-22T13:26:44.156Z,8.20
2019-03-22T13:29:19.616Z,8.63
2019-03-22T13:31:53.650Z,8.53
2019-03-22T13:34:27.542Z,7.40
2019-03-22T13:37:01.099Z,8.67
2019-03-22T13:39:34.785Z,8.03
2019-03-22T13:42:08.524Z,7.90
2019-03-22T13:44:42.259Z,8.83
2019-03-22T13:47:16.073Z,7.50
2019-03-22T13:49:50.017Z,8.73
2019-03-22T13:52:24.258Z,8.93
2019-03-22T13:54:58.321Z,8.23
2019-03-22T13:57:32.265Z,8.13
2019-03-22T14:00:07.533Z,7.90
2019-03-22T14:02:42.626Z,8.03
2019-03-22T14:05:16.637Z,8.20
2019-03-22T14:07:50.347Z,8.73
2019-03-22T14:10:37.591Z,8.97
2019-03-22T14:13:11.123Z,8.20
2019-03-22T14:15:45.569Z,8.03
2019-03-22T14:18:19.526Z,7.63
2019-03-22T14:20:53.862Z,7.60
2019-03-22T14:23:27.966Z,8.30
2019-03-22T14:26:01.766Z,7.87
2019-03-22T14:28:35.910Z,7.73
2019-03-22T14:31:09.897Z,7.73
2019-03-22T14:33:43.847Z,7.50
2019-03-22T14:36:17.971Z,7.40
2019-03-22T14:38:51.867Z,8.13
2019-03-22T14:41:25.832Z,7.87
2019-03-22T14:43:59.798Z,7.30
2019-03-22T14:46:33.945Z,7.77
2019-03-22T14:49:07.948Z,7.70
2019-03-22T14:51:41.679Z,7.07
2019-03-22T14:54:15.678Z,6.93
2019-03-22T14:56:49.594Z,6.67
2019-03-22T14:59:23.372Z,6.37
2019-03-22T15:01:57.255Z,7.27
2019-03-22T15:04:31.098Z,7.13
2019-03-22T15:07:06.849Z,6.70
2019-03-22T15:09:40.896Z,6.33
2019-03-22T15:12:14.753Z,7.13
2019-03-22T15:15:02.697Z,6.93
2019-03-22T15:18:14.208Z,7.47
2019-03-22T15:21:11.255Z,6.80
2019-03-22T15:24:06.209Z,7.07
2019-03-22T15:27:02.123Z,7.53
2019-03-22T15:29:53.630Z,6.80
2019-03-22T15:32:52.614Z,7.10
2019-03-22T15:35:54.094Z,7.27
2019-03-22T15:38:52.755Z,7.67
2019-03-22T15:41:26.544Z,6.87
2019-03-22T15:44:00.876Z,6.97
2019-03-22T15:46:34.960Z,7.03
2019-03-22T15:49:10.506Z,6.90
2019-03-22T15:51:44.868Z,6.83
2019-03-22T15:54:18.925Z,7.40
2019-03-22T15:56:52.826Z,7.63
2019-03-22T15:59:26.632Z,7.93
2019-03-22T16:02:00.499Z,8.37
2019-03-22T16:04:36.613Z,7.53
2019-03-22T16:07:10.428Z,8.20
2019-03-22T16:09:44.448Z,7.70
2019-03-22T16:12:18.502Z,8.27
2019-03-22T16:14:52.753Z,7.73
2019-03-22T16:17:27.056Z,8.43
2019-03-22T16:20:00.934Z,8.80
2019-03-22T16:22:34.846Z,8.47
2019-03-22T16:25:09.649Z,8.20
2019-03-22T16:27:43.519Z,7.77
2019-03-22T16:30:18.113Z,9.33
2019-03-22T16:32:52.307Z,8.23
2019-03-22T16:35:26.667Z,8.50
2019-03-22T16:38:00.684Z,7.87
2019-03-22T16:40:34.794Z,8.60
2019-03-22T16:43:08.807Z,11.17
2019-03-22T16:45:44.567Z,8.50
2019-03-22T16:48:18.661Z,9.13
2019-03-22T16:50:55.165Z,8.73
2019-03-22T16:53:28.766Z,8.00
2019-03-22T16:56:02.806Z,9.00
2019-03-22T16:58:36.756Z,9.10
2019-03-22T17:01:10.738Z,8.77
2019-03-22T17:03:46.086Z,9.40
2019-03-22T17:06:19.935Z,12.03
2019-03-22T17:08:54.207Z,11.00
2019-03-22T17:11:28.447Z,11.97
2019-03-22T17:14:02.669Z,9.10
2019-03-22T17:16:36.806Z,9.57
2019-03-22T17:19:11.015Z,10.10
2019-03-22T17:21:44.831Z,9.70
2019-03-22T17:24:19.301Z,9.57
2019-03-22T17:26:54.390Z,9.93
2019-03-22T17:29:28.578Z,13.77
2019-03-22T17:32:02.728Z,16.97
2019-03-22T17:34:37.077Z,26.47
2019-03-22T17:37:10.935Z,25.47
2019-03-22T17:39:44.839Z,19.87
2019-03-22T17:42:18.968Z,16.43
2019-03-22T17:44:52.827Z,14.47
2019-03-22T17:47:27.024Z,13.00
2019-03-22T17:50:01.098Z,12.53
2019-03-22T17:52:34.954Z,11.17
2019-03-22T17:55:10.009Z,12.53
2019-03-22T17:57:44.331Z,12.97
2019-03-22T18:00:21.729Z,11.73
2019-03-22T18:02:55.957Z,11.60
2019-03-22T18:05:30.306Z,13.03
2019-03-22T18:08:07.895Z,14.33
2019-03-22T18:10:42.173Z,15.77
2019-03-22T18:13:16.451Z,12.53
2019-03-22T18:15:51.059Z,10.77
2019-03-22T18:18:25.451Z,11.37
2019-03-22T18:21:00.205Z,10.93
2019-03-22T18:23:36.743Z,12.40
2019-03-22T18:26:11.198Z,12.33
2019-03-22T18:28:45.221Z,11.03
2019-03-22T18:31:19.622Z,14.90
2019-03-22T18:33:53.373Z,11.20
2019-03-22T18:36:27.128Z,10.60
2019-03-22T18:39:01.678Z,10.60
2019-03-22T18:41:35.922Z,11.27
2019-03-22T18:44:10.328Z,12.07
2019-03-22T18:46:44.403Z,10.73
2019-03-22T18:49:18.453Z,10.20
2019-03-22T18:51:52.306Z,10.90
2019-03-22T18:54:26.053Z,10.00
2019-03-22T18:56:59.991Z,10.70
2019-03-22T18:59:34.149Z,9.67
2019-03-22T19:02:08.363Z,10.50
2019-03-22T19:04:44.409Z,12.00
2019-03-22T19:07:18.747Z,13.47
2019-03-22T19:09:53.085Z,11.80
2019-03-22T19:12:27.136Z,12.93
2019-03-22T19:15:01.491Z,11.70
2019-03-22T19:17:35.784Z,12.50
2019-03-22T19:20:10.726Z,13.40
2019-03-22T19:22:44.813Z,13.47
2019-03-22T19:25:19.470Z,13.57
2019-03-22T19:27:53.905Z,12.00
2019-03-22T19:30:28.475Z,12.03
2019-03-22T19:33:02.573Z,11.77
2019-03-22T19:35:37.009Z,12.23
2019-03-22T19:38:11.918Z,12.13
2019-03-22T19:40:46.246Z,12.50
2019-03-22T19:43:20.621Z,13.50
2019-03-22T19:45:54.890Z,15.13
2019-03-22T19:48:28.882Z,15.27
2019-03-22T19:51:03.092Z,13.20
2019-03-22T19:53:37.688Z,14.53
2019-03-22T19:56:11.839Z,14.53
2019-03-22T19:58:46.006Z,12.00
2019-03-22T20:01:19.739Z,12.43
2019-03-22T20:03:53.577Z,12.40
2019-03-22T20:06:27.626Z,13.40
2019-03-22T20:09:02.872Z,13.00
2019-03-22T20:11:37.179Z,12.27
2019-03-22T20:14:11.282Z,11.57
2019-03-22T20:16:45.259Z,11.83
2019-03-22T20:19:19.507Z,11.60
2019-03-22T20:21:53.731Z,12.33
2019-03-22T20:24:27.554Z,11.87
2019-03-22T20:27:03.642Z,11.47
2019-03-22T20:29:37.520Z,13.17
2019-03-22T20:32:11.406Z,13.17
2019-03-22T20:34:45.505Z,12.37
2019-03-22T20:37:19.742Z,12.23
2019-03-22T20:39:54.818Z,11.17
2019-03-22T20:42:29.729Z,11.50
2019-03-22T20:45:03.670Z,12.10
2019-03-22T20:47:37.722Z,11.67
2019-03-22T20:50:12.177Z,13.10
2019-03-22T20:52:47.953Z,13.00
2019-03-22T20:55:21.966Z,12.70
2019-03-22T20:57:56.283Z,13.07
2019-03-22T21:00:30.434Z,12.07
2019-03-22T21:03:04.300Z,11.07
2019-03-22T21:05:38.225Z,10.37
2019-03-22T21:08:12.372Z,10.57
2019-03-22T21:10:46.142Z,10.67
2019-03-22T21:13:20.343Z,15.30
2019-03-22T21:15:54.807Z,12.57
2019-03-22T21:18:28.708Z,11.47
2019-03-22T21:21:02.693Z,10.83
2019-03-22T21:23:37.113Z,11.60
2019-03-22T21:26:11.132Z,11.30
2019-03-22T21:28:44.838Z,11.27
2019-03-22T21:31:21.072Z,11.50
2019-03-22T21:33:55.478Z,11.17
2019-03-22T21:36:29.471Z,11.20
2019-03-22T21:39:05.207Z,11.30
2019-03-22T21:41:39.664Z,11.97
2019-03-22T21:44:15.594Z,11.13
2019-03-22T21:46:50.025Z,11.87
2019-03-22T21:49:23.796Z,10.73
2019-03-22T21:51:57.535Z,12.00
2019-03-22T21:54:31.763Z,11.43
2019-03-22T21:57:05.863Z,11.83
2019-03-22T21:59:39.640Z,12.57
2019-03-22T22:02:13.537Z,10.83
2019-03-22T22:04:48.373Z,10.80
2019-03-22T22:07:22.648Z,11.13
2019-03-22T22:09:56.561Z,12.17
2019-03-22T22:12:30.447Z,12.10
2019-03-22T22:15:04.378Z,11.07
2019-03-22T22:17:39.280Z,11.60
2019-03-22T22:20:14.222Z,11.03
2019-03-22T22:22:48.396Z,12.10
2019-03-22T22:25:25.301Z,11.50
2019-03-22T22:27:59.506Z,11.77
2019-03-22T22:30:33.349Z,12.47
2019-03-22T22:33:08.684Z,13.07
2019-03-22T22:35:43.087Z,12.17
2019-03-22T22:38:17.035Z,11.73
2019-03-22T22:40:51.132Z,11.57
2019-03-22T22:43:25.106Z,11.13
2019-03-22T22:45:58.949Z,11.47
2019-03-22T22:48:33.093Z,11.77
2019-03-22T22:51:07.885Z,12.30
2019-03-22T22:53:41.580Z,12.67
2019-03-22T22:56:15.414Z,12.80
2019-03-22T22:58:49.135Z,12.00
2019-03-22T23:01:23.133Z,12.63
2019-03-22T23:03:56.897Z,12.83
2019-03-22T23:06:32.120Z,11.47
2019-03-22T23:09:07.394Z,12.53
2019-03-22T23:11:41.493Z,12.37
2019-03-22T23:14:15.603Z,13.13
2019-03-22T23:16:49.353Z,13.00
2019-03-22T23:19:23.694Z,13.93
2019-03-22T23:21:57.486Z,15.60
2019-03-22T23:24:31.386Z,15.50
2019-03-22T23:27:05.264Z,13.17
2019-03-22T23:29:38.796Z,13.70
2019-03-22T23:32:12.630Z,15.03
2019-03-22T23:34:46.493Z,19.23
2019-03-22T23:37:20.200Z,16.13
2019-03-22T23:39:53.890Z,13.50
2019-03-22T23:42:27.507Z,12.77
2019-03-22T23:45:01.148Z,12.70
2019-03-22T23:47:34.917Z,13.23
2019-03-22T23:50:09.540Z,14.27
2019-03-22T23:52:43.251Z,14.83
2019-03-22T23:55:18.212Z,16.27
2019-03-22T23:57:52.080Z,15.23
